Time;durP1;ratioP1;P1;durP2;ratioP2;P2;SDS_P1;SDS_P2;PMS_P1;PMS_P2;Temp;Humidity;BMP_temperature;BMP_pressure;BME280_temperature;BME280_humidity;BME280_pressure;Samples;Min_cycle;Max_cycle;Signal;HPM_P1;HPM_P2
2022/09/09 00:02:05;;;;;;;;;0.00;0.00;;;;;;;;5101940;27;62077;-77
2022/09/09 00:04:32;;;;;;;;;0.75;0.00;;;;;;;;5104234;27;61900;-77
2022/09/09 00:07:16;;;;;;;;;0.50;0.00;;;;;;;;5103230;27;63981;-77
2022/09/09 00:09:54;;;;;;;;;0.00;0.00;;;;;;;;5105367;27;61725;-76
2022/09/09 00:12:29;;;;;;;;;0.00;0.00;;;;;;;;5104127;27;61951;-77
2022/09/09 00:14:56;;;;;;;;;0.75;0.75;;;;;;;;5105413;27;62022;-76
2022/09/09 00:17:21;;;;;;;;;1.00;0.00;;;;;;;;5103889;27;62170;-77
2022/09/09 00:20:00;;;;;;;;;1.00;0.00;;;;;;;;5103490;27;62004;-77
2022/09/09 00:22:27;;;;;;;;;0.25;0.25;;;;;;;;5105539;27;61787;-77
2022/09/09 00:24:53;;;;;;;;;0.00;0.00;;;;;;;;5104957;27;61773;-77
2022/09/09 00:27:22;;;;;;;;;0.00;0.00;;;;;;;;5103079;27;64385;-77
2022/09/09 00:29:53;;;;;;;;;1.00;0.50;;;;;;;;5105015;27;61918;-77
2022/09/09 00:32:20;;;;;;;;;3.00;0.00;;;;;;;;5103567;27;61927;-77
2022/09/09 00:34:48;;;;;;;;;3.00;0.00;;;;;;;;5104977;27;62083;-77
2022/09/09 00:37:13;;;;;;;;;0.00;0.00;;;;;;;;5104447;27;62107;-77
2022/09/09 00:39:41;;;;;;;;;0.00;0.00;;;;;;;;5104847;27;61767;-76
2022/09/09 00:42:13;;;;;;;;;0.50;0.00;;;;;;;;5103635;27;61777;-76
2022/09/09 00:44:44;;;;;;;;;2.00;0.00;;;;;;;;5104851;27;61795;-77
2022/09/09 00:47:12;;;;;;;;;0.00;0.00;;;;;;;;5102584;27;63615;-77
2022/09/09 00:49:37;;;;;;;;;0.00;0.00;;;;;;;;5103235;27;61808;-77
2022/09/09 00:52:27;;;;;;;;;3.50;1.00;;;;;;;;5103027;27;61840;-77
2022/09/09 00:54:56;;;;;;;;;1.00;1.00;;;;;;;;5103352;27;61878;-76
2022/09/09 00:57:22;;;;;;;;;2.00;2.00;;;;;;;;5104008;27;61908;-77
2022/09/09 00:59:52;;;;;;;;;3.00;0.50;;;;;;;;5104522;27;61904;-77
2022/09/09 01:02:23;;;;;;;;;2.00;0.75;;;;;;;;5102900;27;62054;-76
2022/09/09 01:04:48;;;;;;;;;0.00;0.00;;;;;;;;5103190;27;62116;-77
2022/09/09 01:07:18;;;;;;;;;0.25;0.25;;;;;;;;5103994;27;61963;-77
2022/09/09 01:09:57;;;;;;;;;4.25;1.00;;;;;;;;5103347;27;61851;-77
2022/09/09 01:12:29;;;;;;;;;2.75;0.50;;;;;;;;5104645;27;61916;-77
2022/09/09 01:15:03;;;;;;;;;0.50;0.50;;;;;;;;5102650;27;62000;-76
2022/09/09 01:17:32;;;;;;;;;4.00;2.00;;;;;;;;5102845;27;61910;-76
2022/09/09 01:20:07;;;;;;;;;2.75;1.75;;;;;;;;5104301;27;61704;-77
2022/09/09 01:22:47;;;;;;;;;1.75;1.00;;;;;;;;5103012;27;62074;-76
2022/09/09 01:25:28;;;;;;;;;0.00;0.00;;;;;;;;5102932;27;62037;-76
2022/09/09 01:27:56;;;;;;;;;1.00;1.00;;;;;;;;5101996;27;63722;-77
2022/09/09 01:30:21;;;;;;;;;0.00;0.00;;;;;;;;5104415;27;61986;-77
2022/09/09 01:32:49;;;;;;;;;0.00;0.00;;;;;;;;5102508;27;61917;-77
2022/09/09 01:35:33;;;;;;;;;0.75;0.75;;;;;;;;5104629;27;61709;-76
2022/09/09 01:37:59;;;;;;;;;2.00;0.50;;;;;;;;5103096;27;62866;-77
2022/09/09 01:40:25;;;;;;;;;1.50;1.00;;;;;;;;5102750;27;61812;-76
2022/09/09 01:42:51;;;;;;;;;1.75;0.75;;;;;;;;5102527;27;61806;-77
2022/09/09 01:45:16;;;;;;;;;1.00;1.00;;;;;;;;5104135;27;62068;-78
2022/09/09 01:47:42;;;;;;;;;2.00;0.50;;;;;;;;5102845;27;63178;-77
2022/09/09 01:50:11;;;;;;;;;0.50;0.50;;;;;;;;5102258;27;62179;-77
2022/09/09 01:52:36;;;;;;;;;2.50;1.00;;;;;;;;5102395;27;62053;-77
2022/09/09 01:55:01;;;;;;;;;0.75;0.00;;;;;;;;5103647;27;62034;-77
2022/09/09 01:57:33;;;;;;;;;0.50;0.50;;;;;;;;5103016;27;61747;-77
2022/09/09 02:00:09;;;;;;;;;3.00;2.00;;;;;;;;5102009;27;62116;-77
2022/09/09 02:02:40;;;;;;;;;1.00;0.67;;;;;;;;5102148;27;61959;-77
2022/09/09 02:05:24;;;;;;;;;1.00;0.00;;;;;;;;5102392;27;61745;-77
2022/09/09 02:07:52;;;;;;;;;0.00;0.00;;;;;;;;5102847;27;62982;-77
2022/09/09 02:10:17;;;;;;;;;2.00;1.00;;;;;;;;5102026;27;61743;-76
2022/09/09 02:12:45;;;;;;;;;2.75;0.00;;;;;;;;5102105;27;61923;-76
2022/09/09 02:15:16;;;;;;;;;3.00;1.25;;;;;;;;5102079;27;61809;-76
2022/09/09 02:17:42;;;;;;;;;3.00;1.00;;;;;;;;5100913;27;62835;-76
2022/09/09 02:20:09;;;;;;;;;3.00;1.00;;;;;;;;5103311;27;61992;-76
2022/09/09 02:22:35;;;;;;;;;1.00;0.00;;;;;;;;5103537;27;62154;-76
2022/09/09 02:25:02;;;;;;;;;0.75;0.50;;;;;;;;5101855;27;61815;-77
2022/09/09 02:27:27;;;;;;;;;1.75;1.00;;;;;;;;5101654;27;63160;-76
2022/09/09 02:29:54;;;;;;;;;4.50;0.00;;;;;;;;5103060;27;61936;-76
2022/09/09 02:32:22;;;;;;;;;4.00;1.00;;;;;;;;5101494;27;62101;-77
2022/09/09 02:34:48;;;;;;;;;2.00;1.00;;;;;;;;5103522;27;61863;-77
2022/09/09 02:37:17;;;;;;;;;1.00;1.00;;;;;;;;5101047;27;63975;-77
2022/09/09 02:39:42;;;;;;;;;1.75;0.75;;;;;;;;5101686;27;61859;-76
2022/09/09 02:42:08;;;;;;;;;0.50;0.50;;;;;;;;5103074;27;62070;-75
2022/09/09 02:44:34;;;;;;;;;2.25;2.00;;;;;;;;5101804;27;61834;-76
2022/09/09 02:47:05;;;;;;;;;0.50;0.50;;;;;;;;5100719;27;63300;-76
2022/09/09 02:49:53;;;;;;;;;3.00;0.00;;;;;;;;5103036;27;61760;-76
2022/09/09 02:52:20;;;;;;;;;0.00;0.00;;;;;;;;5102489;27;61759;-76
2022/09/09 02:54:47;;;;;;;;;2.25;1.00;;;;;;;;5101552;27;61735;-76
2022/09/09 02:57:17;;;;;;;;;1.75;0.75;;;;;;;;5102138;27;61829;-76
2022/09/09 02:59:43;;;;;;;;;2.00;0.25;;;;;;;;5101258;27;62335;-76
2022/09/09 03:02:09;;;;;;;;;1.75;1.00;;;;;;;;5102401;27;61837;-76
2022/09/09 03:04:35;;;;;;;;;2.50;2.50;;;;;;;;5101638;27;61761;-77
2022/09/09 03:07:00;;;;;;;;;1.75;1.75;;;;;;;;5102267;27;61810;-76
2022/09/09 03:09:25;;;;;;;;;3.00;0.75;;;;;;;;5102563;27;61961;-76
2022/09/09 03:11:51;;;;;;;;;3.00;0.00;;;;;;;;5102798;27;61753;-77
2022/09/09 03:14:17;;;;;;;;;0.00;0.00;;;;;;;;5101285;27;61876;-76
2022/09/09 03:16:42;;;;;;;;;1.00;0.00;;;;;;;;5100274;27;64073;-76
2022/09/09 03:19:08;;;;;;;;;0.50;0.25;;;;;;;;5102747;27;62237;-76
2022/09/09 03:21:33;;;;;;;;;0.00;0.00;;;;;;;;5101123;27;62046;-77
2022/09/09 03:23:59;;;;;;;;;1.50;1.00;;;;;;;;5101199;27;62040;-76
2022/09/09 03:26:24;;;;;;;;;0.00;0.00;;;;;;;;5100352;27;64070;-76
2022/09/09 03:28:52;;;;;;;;;6.50;1.00;;;;;;;;5102336;27;62099;-76
2022/09/09 03:31:18;;;;;;;;;0.25;0.25;;;;;;;;5100596;27;62078;-77
2022/09/09 03:33:43;;;;;;;;;4.00;0.75;;;;;;;;5101397;27;61861;-76
2022/09/09 03:36:08;;;;;;;;;0.75;0.75;;;;;;;;5102073;27;61950;-76
2022/09/09 03:38:34;;;;;;;;;1.00;1.00;;;;;;;;5104480;27;61991;-76
2022/09/09 03:41:00;;;;;;;;;2.00;1.00;;;;;;;;5104941;27;61970;-76
2022/09/09 03:43:26;;;;;;;;;1.25;1.00;;;;;;;;5105770;27;61738;-76
2022/09/09 03:45:52;;;;;;;;;1.00;1.00;;;;;;;;5105215;27;62878;-77
2022/09/09 03:48:18;;;;;;;;;1.75;1.75;;;;;;;;5105703;27;61784;-76
2022/09/09 03:50:46;;;;;;;;;3.00;1.00;;;;;;;;5104505;27;61749;-76
2022/09/09 03:53:11;;;;;;;;;2.75;1.00;;;;;;;;5105627;27;62071;-76
2022/09/09 03:55:36;;;;;;;;;0.25;0.00;;;;;;;;5105068;27;62851;-76
2022/09/09 03:58:02;;;;;;;;;3.00;1.00;;;;;;;;5103902;27;61938;-76
2022/09/09 04:00:28;;;;;;;;;3.75;1.00;;;;;;;;5104449;27;61753;-76
2022/09/09 04:02:57;;;;;;;;;0.75;0.50;;;;;;;;5105490;27;61750;-76
2022/09/09 04:05:22;;;;;;;;;2.00;1.25;;;;;;;;5105081;27;61967;-75
2022/09/09 04:07:48;;;;;;;;;1.00;0.50;;;;;;;;5104234;27;61739;-77
2022/09/09 04:10:13;;;;;;;;;9.00;1.00;;;;;;;;5105672;27;61802;-76
2022/09/09 04:12:39;;;;;;;;;1.00;1.00;;;;;;;;5105547;27;61718;-77
2022/09/09 04:15:04;;;;;;;;;3.00;1.00;;;;;;;;5103790;27;63658;-76
2022/09/09 04:17:30;;;;;;;;;1.00;1.00;;;;;;;;5103169;27;61894;-76
2022/09/09 04:19:56;;;;;;;;;2.75;1.75;;;;;;;;5105714;27;61857;-75
2022/09/09 04:22:22;;;;;;;;;1.50;1.00;;;;;;;;5105780;27;61689;-76
2022/09/09 04:24:47;;;;;;;;;0.00;0.00;;;;;;;;5104205;27;62134;-77
2022/09/09 04:27:12;;;;;;;;;1.00;1.00;;;;;;;;5103690;27;61909;-77
2022/09/09 04:29:38;;;;;;;;;1.00;1.00;;;;;;;;5103724;27;61906;-77
2022/09/09 04:32:03;;;;;;;;;2.00;1.00;;;;;;;;5105031;27;61889;-76
2022/09/09 04:34:29;;;;;;;;;2.75;1.00;;;;;;;;5104469;27;62939;-76
2022/09/09 04:36:55;;;;;;;;;2.50;1.00;;;;;;;;5103543;27;61856;-77
2022/09/09 04:39:20;;;;;;;;;3.75;1.00;;;;;;;;5103382;27;61919;-76
2022/09/09 04:41:45;;;;;;;;;1.00;1.00;;;;;;;;5105151;27;62046;-75
2022/09/09 04:44:10;;;;;;;;;1.00;1.00;;;;;;;;5102863;27;63935;-76
2022/09/09 04:46:36;;;;;;;;;1.25;1.25;;;;;;;;5104351;27;61715;-76
2022/09/09 04:49:01;;;;;;;;;2.75;1.50;;;;;;;;5102744;27;61701;-76
2022/09/09 04:51:26;;;;;;;;;1.00;1.00;;;;;;;;5103669;27;61790;-76
2022/09/09 04:53:53;;;;;;;;;2.00;2.00;;;;;;;;5103417;27;63153;-76
2022/09/09 04:56:19;;;;;;;;;0.25;0.25;;;;;;;;5104877;27;62085;-76
2022/09/09 04:58:45;;;;;;;;;1.25;1.25;;;;;;;;5103236;27;61882;-77
2022/09/09 05:01:14;;;;;;;;;2.50;1.00;;;;;;;;5104853;27;61774;-76
2022/09/09 05:03:40;;;;;;;;;0.50;0.50;;;;;;;;5103827;27;62042;-76
2022/09/09 05:06:09;;;;;;;;;1.50;1.00;;;;;;;;5104444;27;61900;-76
2022/09/09 05:08:38;;;;;;;;;1.50;1.00;;;;;;;;5104368;27;61745;-76
2022/09/09 05:11:24;;;;;;;;;4.00;1.75;;;;;;;;5104397;27;61797;-76
2022/09/09 05:13:50;;;;;;;;;1.50;1.50;;;;;;;;5101493;27;63868;-78
2022/09/09 05:16:15;;;;;;;;;2.00;2.00;;;;;;;;5104310;27;61735;-76
2022/09/09 05:18:42;;;;;;;;;3.00;2.00;;;;;;;;5102767;27;61750;-77
2022/09/09 05:21:08;;;;;;;;;2.00;1.00;;;;;;;;5104430;27;61875;-76
2022/09/09 05:23:34;;;;;;;;;1.25;1.25;;;;;;;;5103024;27;62853;-76
2022/09/09 05:25:59;;;;;;;;;1.25;1.25;;;;;;;;5103025;27;62030;-77
2022/09/09 05:28:25;;;;;;;;;1.00;1.00;;;;;;;;5103081;27;61779;-78
2022/09/09 05:30:58;;;;;;;;;3.50;1.50;;;;;;;;5102780;27;62143;-77
2022/09/09 05:33:25;;;;;;;;;3.00;1.00;;;;;;;;5102523;27;63770;-77
2022/09/09 05:36:02;;;;;;;;;1.00;0.25;;;;;;;;5101763;27;62042;-77
2022/09/09 05:38:27;;;;;;;;;1.25;1.00;;;;;;;;5100778;27;62181;-77
2022/09/09 05:40:53;;;;;;;;;1.00;1.00;;;;;;;;5100066;27;62075;-77
2022/09/09 05:43:19;;;;;;;;;2.00;2.00;;;;;;;;5100529;27;62856;-76
2022/09/09 05:45:46;;;;;;;;;4.25;1.75;;;;;;;;5101666;27;61815;-76
2022/09/09 05:48:11;;;;;;;;;1.00;1.00;;;;;;;;5101725;27;61894;-79
2022/09/09 05:50:36;;;;;;;;;4.00;3.00;;;;;;;;5101602;27;61859;-76
2022/09/09 05:53:03;;;;;;;;;1.00;1.00;;;;;;;;5100005;27;64855;-78
2022/09/09 05:55:31;;;;;;;;;2.25;1.75;;;;;;;;5101924;27;62097;-76
2022/09/09 05:57:56;;;;;;;;;1.00;1.00;;;;;;;;5103016;27;61981;-76
2022/09/09 06:00:21;;;;;;;;;1.50;1.50;;;;;;;;5102248;27;62162;-76
2022/09/09 06:02:50;;;;;;;;;2.25;1.25;;;;;;;;5101303;27;63907;-76
2022/09/09 06:05:16;;;;;;;;;3.00;1.75;;;;;;;;5102192;27;61989;-76
2022/09/09 06:07:41;;;;;;;;;1.00;1.00;;;;;;;;5103392;27;62126;-76
2022/09/09 06:10:07;;;;;;;;;2.25;1.50;;;;;;;;5102310;27;61860;-76
2022/09/09 06:12:32;;;;;;;;;4.00;1.00;;;;;;;;5102845;27;62060;-77
2022/09/09 06:14:58;;;;;;;;;3.00;1.00;;;;;;;;5101939;27;62003;-76
2022/09/09 06:17:23;;;;;;;;;2.00;2.00;;;;;;;;5101602;27;61761;-76
2022/09/09 06:19:48;;;;;;;;;1.00;1.00;;;;;;;;5103666;27;61805;-76
2022/09/09 06:22:14;;;;;;;;;1.25;1.00;;;;;;;;5096414;27;61899;-76
2022/09/09 06:24:39;;;;;;;;;2.00;1.00;;;;;;;;5091433;27;61795;-75
2022/09/09 06:27:05;;;;;;;;;1.00;1.00;;;;;;;;5096220;27;62252;-75
2022/09/09 06:29:30;;;;;;;;;1.25;1.00;;;;;;;;5103693;27;61892;-75
2022/09/09 06:31:56;;;;;;;;;0.50;0.50;;;;;;;;5102506;27;63208;-75
2022/09/09 06:34:21;;;;;;;;;2.50;1.75;;;;;;;;5101850;27;61792;-75
2022/09/09 06:36:46;;;;;;;;;0.25;0.00;;;;;;;;5103273;27;62398;-75
2022/09/09 06:39:12;;;;;;;;;1.00;1.00;;;;;;;;5094157;27;62086;-76
2022/09/09 06:41:38;;;;;;;;;1.00;1.00;;;;;;;;5080753;28;64144;-76
2022/09/09 06:44:04;;;;;;;;;0.50;0.50;;;;;;;;5081034;28;61821;-76
2022/09/09 06:46:32;;;;;;;;;6.50;1.00;;;;;;;;5082668;28;62172;-75
2022/09/09 06:48:59;;;;;;;;;0.25;0.00;;;;;;;;5098276;27;62069;-75
2022/09/09 06:51:35;;;;;;;;;1.50;1.25;;;;;;;;5081438;28;62731;-76
2022/09/09 06:54:03;;;;;;;;;1.00;1.00;;;;;;;;5082021;28;61889;-76
2022/09/09 06:56:30;;;;;;;;;2.00;1.00;;;;;;;;5082209;28;61874;-76
2022/09/09 06:58:58;;;;;;;;;5.00;2.50;;;;;;;;5082502;28;62018;-76
2022/09/09 07:01:28;;;;;;;;;0.75;0.75;;;;;;;;5081376;28;61908;-76
2022/09/09 07:03:54;;;;;;;;;2.00;0.00;;;;;;;;5098048;27;62096;-75
2022/09/09 07:06:30;;;;;;;;;3.75;2.00;;;;;;;;5082097;28;61682;-76
2022/09/09 07:08:57;;;;;;;;;1.50;1.00;;;;;;;;5098265;27;61901;-76
2022/09/09 07:11:24;;;;;;;;;0.00;0.00;;;;;;;;5081562;28;62815;-75
2022/09/09 07:13:49;;;;;;;;;1.00;1.00;;;;;;;;5081922;28;62076;-76
2022/09/09 07:16:18;;;;;;;;;1.00;1.00;;;;;;;;5081963;28;62205;-76
2022/09/09 07:18:44;;;;;;;;;4.00;1.00;;;;;;;;5101975;27;61736;-75
2022/09/09 07:21:12;;;;;;;;;1.00;1.00;;;;;;;;5100648;27;62829;-75
2022/09/09 07:23:38;;;;;;;;;4.75;1.00;;;;;;;;5097343;27;61817;-76
2022/09/09 07:26:07;;;;;;;;;1.00;1.00;;;;;;;;5081899;27;61706;-76
2022/09/09 07:28:32;;;;;;;;;1.00;1.00;;;;;;;;5101495;27;62129;-76
2022/09/09 07:31:02;;;;;;;;;0.50;0.50;;;;;;;;5100709;27;62113;-76
2022/09/09 07:33:30;;;;;;;;;0.50;0.00;;;;;;;;5102358;27;61619;-77
2022/09/09 07:36:02;;;;;;;;;2.75;1.00;;;;;;;;5098257;27;61888;-76
2022/09/09 07:38:29;;;;;;;;;1.00;1.00;;;;;;;;5099131;27;61817;-78
2022/09/09 07:41:01;;;;;;;;;0.25;0.25;;;;;;;;5101883;27;61661;-76
2022/09/09 07:43:27;;;;;;;;;1.00;1.00;;;;;;;;5100764;27;61846;-77
2022/09/09 07:45:57;;;;;;;;;0.50;0.50;;;;;;;;5085184;27;61714;-75
2022/09/09 07:48:22;;;;;;;;;1.75;1.75;;;;;;;;5081560;28;61966;-77
2022/09/09 07:50:47;;;;;;;;;2.00;1.00;;;;;;;;5096857;27;64474;-76
2022/09/09 07:53:13;;;;;;;;;4.25;1.50;;;;;;;;5112658;27;62471;-76
2022/09/09 07:55:38;;;;;;;;;0.25;0.25;;;;;;;;5080531;28;61856;-77
2022/09/09 07:58:03;;;;;;;;;2.00;1.75;;;;;;;;5114702;27;62124;-77
2022/09/09 08:00:29;;;;;;;;;3.00;1.25;;;;;;;;5081160;28;61822;-76
2022/09/09 08:02:54;;;;;;;;;3.50;1.00;;;;;;;;5081208;28;61848;-75
2022/09/09 08:05:19;;;;;;;;;0.00;0.00;;;;;;;;5114811;27;61907;-76
2022/09/09 08:07:45;;;;;;;;;2.00;1.00;;;;;;;;5081754;27;61687;-77
2022/09/09 08:10:10;;;;;;;;;2.00;0.25;;;;;;;;5080878;28;62818;-75
2022/09/09 08:12:36;;;;;;;;;1.00;0.67;;;;;;;;5114331;27;61752;-76
2022/09/09 08:15:01;;;;;;;;;1.50;0.50;;;;;;;;5080456;28;61931;-76
2022/09/09 08:17:26;;;;;;;;;1.00;1.00;;;;;;;;5088600;27;62083;-76
2022/09/09 08:19:52;;;;;;;;;2.00;1.00;;;;;;;;5099856;27;63549;-76
2022/09/09 08:22:17;;;;;;;;;2.00;0.00;;;;;;;;5100507;27;61865;-76
2022/09/09 08:24:42;;;;;;;;;3.00;0.33;;;;;;;;5101220;27;62320;-75
2022/09/09 08:27:09;;;;;;;;;0.00;0.00;;;;;;;;5104320;27;61761;-76
2022/09/09 08:29:35;;;;;;;;;1.25;1.00;;;;;;;;5104666;27;62004;-76
2022/09/09 08:32:01;;;;;;;;;0.00;0.00;;;;;;;;5104795;27;62152;-76
2022/09/09 08:34:26;;;;;;;;;2.00;1.00;;;;;;;;5104115;27;61912;-75
2022/09/09 08:36:52;;;;;;;;;2.00;0.33;;;;;;;;5100524;27;62367;-75
2022/09/09 08:39:19;;;;;;;;;2.67;0.33;;;;;;;;5084458;28;62019;-75
2022/09/09 08:42:02;;;;;;;;;0.00;0.00;;;;;;;;5083563;28;61863;-77
2022/09/09 08:44:30;;;;;;;;;0.33;0.33;;;;;;;;5084779;28;61897;-77
2022/09/09 08:46:56;;;;;;;;;2.00;1.00;;;;;;;;5089290;27;62235;-76
2022/09/09 08:49:31;;;;;;;;;1.67;0.33;;;;;;;;5103981;27;62937;-75
2022/09/09 08:51:57;;;;;;;;;2.00;0.00;;;;;;;;5103586;27;62020;-76
2022/09/09 08:54:23;;;;;;;;;1.00;1.00;;;;;;;;5104842;27;61878;-76
2022/09/09 08:56:49;;;;;;;;;3.67;1.00;;;;;;;;5103608;27;61807;-75
2022/09/09 08:59:17;;;;;;;;;5.00;0.00;;;;;;;;5104322;27;62799;-77
2022/09/09 09:01:50;;;;;;;;;0.33;0.00;;;;;;;;5104262;27;61734;-76
2022/09/09 09:04:41;;;;;;;;;1.33;0.00;;;;;;;;5103663;27;61843;-76
2022/09/09 09:07:16;;;;;;;;;1.00;0.67;;;;;;;;5083176;28;61737;-76
2022/09/09 09:09:51;;;;;;;;;3.75;2.00;;;;;;;;5084408;27;62577;-76
2022/09/09 09:12:19;;;;;;;;;0.67;0.00;;;;;;;;5104575;27;62097;-76
2022/09/09 09:14:46;;;;;;;;;2.25;2.25;;;;;;;;5104589;27;61753;-77
2022/09/09 09:17:14;;;;;;;;;1.00;1.00;;;;;;;;5103018;27;61922;-76
2022/09/09 09:19:40;;;;;;;;;1.67;0.67;;;;;;;;5102569;27;64032;-78
2022/09/09 09:22:15;;;;;;;;;0.67;0.67;;;;;;;;5102819;27;61947;-77
2022/09/09 09:24:49;;;;;;;;;1.67;0.00;;;;;;;;5103952;27;61848;-77
2022/09/09 09:27:33;;;;;;;;;0.33;0.00;;;;;;;;5104716;27;62046;-76
2022/09/09 09:30:00;;;;;;;;;0.00;0.00;;;;;;;;5103140;27;63130;-76
2022/09/09 09:32:26;;;;;;;;;1.67;1.00;;;;;;;;5104448;27;61755;-77
2022/09/09 09:34:56;;;;;;;;;0.00;0.00;;;;;;;;5104401;27;62088;-77
2022/09/09 09:37:27;;;;;;;;;1.33;0.00;;;;;;;;5104443;27;62050;-77
2022/09/09 09:39:53;;;;;;;;;1.33;0.67;;;;;;;;5103450;27;61615;-78
2022/09/09 09:42:18;;;;;;;;;3.33;2.00;;;;;;;;5102567;27;61659;-76
2022/09/09 09:44:44;;;;;;;;;0.67;0.67;;;;;;;;5102485;27;62022;-77
2022/09/09 09:47:13;;;;;;;;;0.67;0.67;;;;;;;;5102483;27;62025;-76
2022/09/09 09:49:39;;;;;;;;;0.67;0.00;;;;;;;;5102123;27;64080;-77
2022/09/09 09:52:04;;;;;;;;;0.00;0.00;;;;;;;;5101987;27;61844;-77
2022/09/09 09:54:32;;;;;;;;;2.00;0.00;;;;;;;;5102603;27;62029;-77
2022/09/09 09:57:08;;;;;;;;;0.00;0.00;;;;;;;;5102813;27;62115;-77
2022/09/09 09:59:35;;;;;;;;;1.33;0.67;;;;;;;;5101213;27;65112;-76
2022/09/09 10:02:13;;;;;;;;;0.00;0.00;;;;;;;;5103341;27;62034;-77
2022/09/09 10:04:38;;;;;;;;;0.67;0.33;;;;;;;;5102430;27;61852;-77
2022/09/09 10:07:11;;;;;;;;;0.67;0.00;;;;;;;;5103796;27;61796;-77
2022/09/09 10:09:36;;;;;;;;;4.67;1.00;;;;;;;;5100350;27;62971;-77
2022/09/09 10:12:20;;;;;;;;;0.67;0.67;;;;;;;;5103525;27;61881;-77
2022/09/09 10:14:52;;;;;;;;;2.33;1.00;;;;;;;;5102273;27;62040;-78
2022/09/09 10:17:32;;;;;;;;;1.00;1.00;;;;;;;;5103170;27;61822;-77
2022/09/09 10:20:06;;;;;;;;;2.00;0.00;;;;;;;;5100418;27;62949;-78
2022/09/09 10:22:33;;;;;;;;;3.67;0.00;;;;;;;;5102270;27;61925;-77
2022/09/09 10:24:59;;;;;;;;;5.00;0.67;;;;;;;;5101781;27;61911;-76
2022/09/09 10:27:25;;;;;;;;;3.67;1.00;;;;;;;;5101778;27;62109;-77
2022/09/09 10:29:56;;;;;;;;;0.00;0.00;;;;;;;;5101507;27;63756;-77
2022/09/09 10:32:40;;;;;;;;;0.00;0.00;;;;;;;;5103203;27;62148;-77
2022/09/09 10:35:22;;;;;;;;;0.00;0.00;;;;;;;;5101248;27;61883;-77
2022/09/09 10:37:54;;;;;;;;;3.33;1.00;;;;;;;;5101175;27;61789;-76
2022/09/09 10:40:19;;;;;;;;;1.00;1.00;;;;;;;;5102328;27;61908;-75
2022/09/09 10:42:44;;;;;;;;;1.00;0.00;;;;;;;;5101600;27;61970;-76
2022/09/09 10:45:33;;;;;;;;;0.00;0.00;;;;;;;;5101689;27;61957;-77
2022/09/09 10:48:01;;;;;;;;;0.00;0.00;;;;;;;;5100583;27;61898;-76
2022/09/09 10:50:38;;;;;;;;;0.00;0.00;;;;;;;;5102602;27;61707;-77
2022/09/09 10:53:18;;;;;;;;;1.00;0.33;;;;;;;;5102771;27;61916;-78
2022/09/09 10:55:48;;;;;;;;;0.00;0.00;;;;;;;;5101250;27;62122;-77
2022/09/09 10:58:22;;;;;;;;;0.00;0.00;;;;;;;;5101883;27;62030;-77
2022/09/09 11:00:51;;;;;;;;;2.00;1.00;;;;;;;;5100221;27;64828;-75
2022/09/09 11:03:22;;;;;;;;;0.00;0.00;;;;;;;;5097982;27;61774;-79
2022/09/09 11:06:08;;;;;;;;;2.00;1.00;;;;;;;;5103208;27;61799;-78
2022/09/09 11:08:35;;;;;;;;;0.00;0.00;;;;;;;;5100721;27;62002;-79
2022/09/09 11:11:03;;;;;;;;;3.00;1.00;;;;;;;;5101316;27;62211;-76
2022/09/09 11:13:40;;;;;;;;;0.67;0.67;;;;;;;;5102849;27;61713;-76
2022/09/09 11:16:25;;;;;;;;;0.00;0.00;;;;;;;;5102806;27;61801;-78
2022/09/09 11:18:54;;;;;;;;;0.33;0.33;;;;;;;;5093131;27;62160;-79
2022/09/09 11:21:23;;;;;;;;;0.67;0.67;;;;;;;;5099496;27;64998;-80
2022/09/09 11:23:52;;;;;;;;;0.67;0.67;;;;;;;;5101532;27;62081;-81
2022/09/09 11:26:28;;;;;;;;;2.00;1.00;;;;;;;;5100340;27;62409;-80
2022/09/09 11:29:03;;;;;;;;;2.00;0.00;;;;;;;;5102149;27;62094;-77
2022/09/09 11:31:58;;;;;;;;;1.00;1.00;;;;;;;;5100600;27;62406;-77
2022/09/09 11:34:26;;;;;;;;;0.00;0.00;;;;;;;;5100361;27;61820;-77
2022/09/09 11:36:52;;;;;;;;;0.00;0.00;;;;;;;;5101270;27;61848;-78
2022/09/09 11:39:35;;;;;;;;;0.00;0.00;;;;;;;;5107410;27;61787;-88
2022/09/09 11:42:15;;;;;;;;;2.33;1.00;;;;;;;;5107486;27;63910;-77
2022/09/09 11:44:41;;;;;;;;;2.33;0.33;;;;;;;;5104647;27;62053;-76
2022/09/09 11:47:23;;;;;;;;;0.00;0.00;;;;;;;;5099811;27;62379;-75
2022/09/09 11:49:48;;;;;;;;;0.33;0.00;;;;;;;;5100478;27;61825;-77
2022/09/09 11:52:32;;;;;;;;;0.67;0.67;;;;;;;;5099394;27;61907;-77
2022/09/09 11:55:07;;;;;;;;;1.00;1.00;;;;;;;;5098267;27;61987;-77
2022/09/09 11:57:36;;;;;;;;;1.00;1.00;;;;;;;;5098894;27;61933;-75
2022/09/09 12:00:02;;;;;;;;;1.00;1.00;;;;;;;;5104052;27;62012;-79
2022/09/09 12:02:31;;;;;;;;;0.67;0.67;;;;;;;;5102288;27;63098;-75
2022/09/09 12:05:05;;;;;;;;;3.00;0.00;;;;;;;;5100448;27;61967;-76
2022/09/09 12:07:33;;;;;;;;;0.67;0.67;;;;;;;;5098783;27;61850;-75
2022/09/09 12:10:06;;;;;;;;;2.00;1.00;;;;;;;;5103839;27;61887;-80
2022/09/09 12:12:33;;;;;;;;;3.00;1.33;;;;;;;;5100872;27;63125;-79
2022/09/09 12:15:08;;;;;;;;;1.67;0.00;;;;;;;;5102883;27;62015;-79
2022/09/09 12:17:42;;;;;;;;;0.33;0.33;;;;;;;;5101475;27;61982;-79
2022/09/09 12:20:21;;;;;;;;;1.00;0.00;;;;;;;;5100500;27;62048;-79
2022/09/09 12:22:53;;;;;;;;;1.67;0.67;;;;;;;;5099654;27;62247;-79
2022/09/09 12:25:19;;;;;;;;;1.67;0.67;;;;;;;;5102107;27;61927;-79
2022/09/09 12:27:49;;;;;;;;;3.00;0.33;;;;;;;;5100921;27;61848;-81
2022/09/09 12:30:15;;;;;;;;;0.00;0.00;;;;;;;;5103935;27;62125;-83
2022/09/09 12:32:41;;;;;;;;;2.00;2.00;;;;;;;;5101633;27;62105;-82
2022/09/09 12:35:09;;;;;;;;;2.67;0.00;;;;;;;;5102110;27;62241;-81
2022/09/09 12:37:36;;;;;;;;;1.00;1.00;;;;;;;;5103365;27;61879;-80
2022/09/09 12:40:14;;;;;;;;;2.75;1.50;;;;;;;;5102812;27;62201;-81
2022/09/09 12:42:40;;;;;;;;;0.00;0.00;;;;;;;;5103439;27;62005;-80
2022/09/09 12:45:16;;;;;;;;;1.50;1.50;;;;;;;;5104362;27;61778;-80
2022/09/09 12:47:45;;;;;;;;;2.50;1.50;;;;;;;;5103608;27;61987;-81
2022/09/09 12:50:21;;;;;;;;;5.00;2.25;;;;;;;;5102483;27;61982;-81
2022/09/09 12:52:47;;;;;;;;;2.00;2.00;;;;;;;;5099847;27;62155;-80
2022/09/09 12:55:21;;;;;;;;;4.00;1.50;;;;;;;;5101181;27;61926;-80
2022/09/09 12:57:50;;;;;;;;;3.50;3.00;;;;;;;;5101045;27;61998;-81
2022/09/09 13:00:16;;;;;;;;;0.50;0.50;;;;;;;;5102185;27;61958;-82
2022/09/09 13:03:07;;;;;;;;;3.25;2.00;;;;;;;;5101594;27;64101;-80
2022/09/09 13:05:38;;;;;;;;;7.00;1.75;;;;;;;;5080396;27;61961;-80
2022/09/09 13:08:04;;;;;;;;;1.75;1.75;;;;;;;;5102756;27;61927;-80
2022/09/09 13:10:33;;;;;;;;;3.50;1.50;;;;;;;;5102591;27;61829;-80
2022/09/09 13:12:59;;;;;;;;;2.25;1.50;;;;;;;;5103021;27;63787;-80
2022/09/09 13:15:28;;;;;;;;;1.50;1.50;;;;;;;;5100788;27;62095;-81
2022/09/09 13:18:00;;;;;;;;;2.50;2.00;;;;;;;;5086198;27;61684;-80
2022/09/09 13:20:26;;;;;;;;;1.75;1.75;;;;;;;;5104100;27;61864;-79
2022/09/09 13:22:53;;;;;;;;;2.50;0.75;;;;;;;;5101266;27;65304;-81
2022/09/09 13:25:25;;;;;;;;;1.00;1.00;;;;;;;;5103235;27;62148;-80
2022/09/09 13:27:56;;;;;;;;;0.33;0.33;;;;;;;;5103877;27;61828;-80
2022/09/09 13:30:24;;;;;;;;;1.00;1.00;;;;;;;;5099486;27;62004;-80
2022/09/09 13:33:08;;;;;;;;;2.00;1.00;;;;;;;;5101680;27;65051;-81
2022/09/09 13:35:35;;;;;;;;;1.00;0.33;;;;;;;;5104303;27;62129;-80
2022/09/09 13:38:08;;;;;;;;;2.33;1.00;;;;;;;;5104361;27;61903;-79
2022/09/09 13:40:34;;;;;;;;;0.50;0.50;;;;;;;;5105172;27;61852;-80
2022/09/09 13:42:59;;;;;;;;;1.00;1.00;;;;;;;;5102542;27;63195;-80
2022/09/09 13:45:28;;;;;;;;;2.50;1.00;;;;;;;;5103058;27;61830;-80
2022/09/09 13:47:55;;;;;;;;;1.00;1.00;;;;;;;;5101448;27;61895;-81
2022/09/09 13:50:23;;;;;;;;;0.00;0.00;;;;;;;;5100131;27;61878;-80
2022/09/09 13:52:55;;;;;;;;;1.00;1.00;;;;;;;;5102180;27;61844;-79
2022/09/09 13:55:22;;;;;;;;;3.33;0.67;;;;;;;;5098552;27;61900;-81
2022/09/09 13:57:58;;;;;;;;;0.33;0.33;;;;;;;;5102601;27;61954;-81
2022/09/09 14:00:24;;;;;;;;;0.67;0.67;;;;;;;;5098246;27;62038;-79
2022/09/09 14:02:50;;;;;;;;;0.00;0.00;;;;;;;;5100254;27;63649;-79
2022/09/09 14:05:16;;;;;;;;;1.00;1.00;;;;;;;;5100116;27;61984;-79
2022/09/09 14:07:42;;;;;;;;;0.00;0.00;;;;;;;;5101676;27;61768;-79
2022/09/09 14:10:08;;;;;;;;;0.00;0.00;;;;;;;;5099768;27;62096;-80
2022/09/09 14:12:33;;;;;;;;;1.00;1.00;;;;;;;;5102025;27;62077;-81
2022/09/09 14:15:01;;;;;;;;;2.00;1.00;;;;;;;;5075362;27;61815;-82
2022/09/09 14:17:29;;;;;;;;;2.67;1.00;;;;;;;;5100209;27;61773;-82
2022/09/09 14:19:54;;;;;;;;;0.33;0.33;;;;;;;;5100935;27;62190;-81
2022/09/09 14:22:20;;;;;;;;;2.00;0.00;;;;;;;;5100039;27;65186;-81
2022/09/09 14:24:49;;;;;;;;;0.33;0.33;;;;;;;;5101377;27;61870;-81
2022/09/09 14:27:14;;;;;;;;;0.67;0.67;;;;;;;;5102004;27;62055;-82
2022/09/09 14:29:40;;;;;;;;;0.00;0.00;;;;;;;;5102062;27;62198;-82
2022/09/09 14:32:05;;;;;;;;;0.33;0.00;;;;;;;;5102781;27;61898;-81
2022/09/09 14:34:32;;;;;;;;;0.00;0.00;;;;;;;;5101985;27;61749;-82
2022/09/09 14:36:57;;;;;;;;;1.00;0.00;;;;;;;;5098846;27;62111;-80
2022/09/09 14:39:22;;;;;;;;;0.00;0.00;;;;;;;;5083114;27;62074;-82
2022/09/09 14:41:48;;;;;;;;;1.67;1.00;;;;;;;;5082916;28;63311;-81
2022/09/09 14:44:13;;;;;;;;;0.00;0.00;;;;;;;;5098816;27;61804;-81
2022/09/09 14:46:38;;;;;;;;;1.00;0.00;;;;;;;;5089857;27;62861;-82
2022/09/09 14:49:07;;;;;;;;;0.00;0.00;;;;;;;;5100544;27;62173;-82
2022/09/09 14:51:35;;;;;;;;;0.00;0.00;;;;;;;;5102685;27;63024;-82
2022/09/09 14:54:01;;;;;;;;;1.67;0.00;;;;;;;;5099193;27;61847;-82